Time;durP1;ratioP1;P1;durP2;ratioP2;P2;SDS_P1;SDS_P2;PMS_P1;PMS_P2;Temp;Humidity;BMP_temperature;BMP_pressure;BME280_temperature;BME280_humidity;BME280_pressure;Samples;Min_cycle;Max_cycle;Signal;HPM_P1;HPM_P2
2022/06/27 00:01:29;;;;;;;;;;;17.40;99.90;;;;;;5098378;27;20435;-54
2022/06/27 00:04:09;;;;;;;;;;;17.40;99.90;;;;;;5100159;27;19912;-55
2022/06/27 00:06:49;;;;;;;;;;;17.40;99.90;;;;;;5107932;27;19913;-54
2022/06/27 00:09:28;;;;;;;;;;;17.60;99.90;;;;;;5124211;27;19916;-54
2022/06/27 00:12:09;;;;;;;;;;;17.80;99.90;;;;;;5125224;27;20327;-55
2022/06/27 00:14:50;;;;;;;;;;;18.00;99.90;;;;;;5104017;27;19957;-54
2022/06/27 00:17:29;;;;;;;;;;;18.10;99.90;;;;;;5123735;27;19916;-54
2022/06/27 00:20:10;;;;;;;;;;;18.10;99.90;;;;;;5125003;27;20398;-54
2022/06/27 00:22:51;;;;;;;;;;;17.90;99.90;;;;;;5124359;27;19916;-54
2022/06/27 00:25:31;;;;;;;;;;;17.70;99.90;;;;;;5121064;27;19912;-55
2022/06/27 00:28:10;;;;;;;;;;;17.50;99.90;;;;;;5124006;27;19915;-54
2022/06/27 00:30:50;;;;;;;;;;;17.30;99.90;;;;;;5103600;27;19926;-54
2022/06/27 00:33:30;;;;;;;;;;;17.10;99.90;;;;;;5124457;27;19920;-55
2022/06/27 00:36:10;;;;;;;;;;;17.10;99.90;;;;;;5094034;27;19912;-55
2022/06/27 00:38:50;;;;;;;;;;;16.90;99.90;;;;;;5123855;27;19918;-55
2022/06/27 00:41:30;;;;;;;;;;;16.80;99.90;;;;;;5102512;27;19966;-54
2022/06/27 00:44:10;;;;;;;;;;;16.70;99.90;;;;;;5124288;27;20316;-54
2022/06/27 00:46:51;;;;;;;;;;;16.70;99.90;;;;;;5123433;27;19918;-55
2022/06/27 00:49:31;;;;;;;;;;;16.60;99.90;;;;;;5125054;27;19915;-55
2022/06/27 00:52:11;;;;;;;;;;;16.60;99.90;;;;;;5124723;27;19916;-54
2022/06/27 00:54:52;;;;;;;;;;;16.60;99.90;;;;;;5124149;27;19926;-55
2022/06/27 00:57:32;;;;;;;;;;;16.50;99.90;;;;;;5102863;27;19916;-54
2022/06/27 01:00:14;;;;;;;;;;;16.40;99.90;;;;;;5124665;27;20369;-54
2022/06/27 01:02:55;;;;;;;;;;;16.40;99.90;;;;;;5104383;27;19953;-55
2022/06/27 01:05:34;;;;;;;;;;;16.30;99.90;;;;;;5113109;27;20366;-54
2022/06/27 01:08:14;;;;;;;;;;;16.20;99.90;;;;;;5103677;27;19930;-54
2022/06/27 01:10:55;;;;;;;;;;;16.20;99.90;;;;;;5124257;27;19912;-55
2022/06/27 01:13:36;;;;;;;;;;;16.10;99.90;;;;;;5124481;27;19918;-55
2022/06/27 01:16:16;;;;;;;;;;;16.00;99.90;;;;;;5123303;27;20359;-54
2022/06/27 01:18:55;;;;;;;;;;;16.00;99.90;;;;;;5084090;28;20181;-55
2022/06/27 01:21:37;;;;;;;;;;;15.90;99.90;;;;;;5124386;27;19915;-54
2022/06/27 01:24:19;;;;;;;;;;;15.90;99.90;;;;;;5125159;27;19912;-55
2022/06/27 01:26:59;;;;;;;;;;;15.90;99.90;;;;;;5124033;27;19916;-54
2022/06/27 01:29:39;;;;;;;;;;;15.90;99.90;;;;;;5103483;27;20481;-55
2022/06/27 01:32:21;;;;;;;;;;;15.90;99.90;;;;;;5145593;27;19911;-55
2022/06/27 01:35:02;;;;;;;;;;;15.90;99.90;;;;;;5124701;27;20083;-54
2022/06/27 01:37:44;;;;;;;;;;;16.10;99.90;;;;;;5123566;27;19912;-55
2022/06/27 01:40:23;;;;;;;;;;;16.30;99.90;;;;;;5104116;27;20358;-54
2022/06/27 01:43:06;;;;;;;;;;;16.30;99.90;;;;;;5125030;27;19911;-55
2022/06/27 01:45:46;;;;;;;;;;;16.30;99.90;;;;;;5140213;22;19916;-53
2022/06/27 01:48:27;;;;;;;;;;;16.20;99.90;;;;;;5124681;27;19912;-54
2022/06/27 01:51:09;;;;;;;;;;;16.20;99.90;;;;;;5124287;27;19916;-54
2022/06/27 01:53:51;;;;;;;;;;;16.20;99.90;;;;;;5124466;27;20330;-53
2022/06/27 01:56:31;;;;;;;;;;;16.30;99.90;;;;;;5095063;27;19932;-53
2022/06/27 01:59:12;;;;;;;;;;;16.40;99.90;;;;;;5123451;27;19915;-55
2022/06/27 02:01:53;;;;;;;;;;;16.50;99.90;;;;;;5103492;27;20426;-53
2022/06/27 02:04:34;;;;;;;;;;;16.60;99.90;;;;;;5103809;27;20355;-54
2022/06/27 02:07:15;;;;;;;;;;;16.80;99.90;;;;;;5123878;27;19912;-53
2022/06/27 02:09:54;;;;;;;;;;;16.80;99.90;;;;;;5083620;28;20225;-53
2022/06/27 02:12:36;;;;;;;;;;;16.80;99.90;;;;;;5125007;27;19926;-54
2022/06/27 02:15:17;;;;;;;;;;;16.80;99.90;;;;;;5124960;27;20323;-54
2022/06/27 02:18:00;;;;;;;;;;;16.70;99.90;;;;;;5083217;28;20349;-53
2022/06/27 02:20:40;;;;;;;;;;;16.80;99.90;;;;;;5124575;27;20376;-53
2022/06/27 02:23:20;;;;;;;;;;;17.00;99.90;;;;;;5124827;27;19918;-54
2022/06/27 02:26:06;;;;;;;;;;;17.20;99.90;;;;;;5083156;28;19918;-53
2022/06/27 02:28:48;;;;;;;;;;;17.30;99.90;;;;;;5124836;27;19912;-53
2022/06/27 02:31:29;;;;;;;;;;;17.40;99.90;;;;;;5124493;27;20332;-53
2022/06/27 02:34:12;;;;;;;;;;;17.50;99.90;;;;;;5104694;27;19913;-53
2022/06/27 02:36:52;;;;;;;;;;;17.60;99.90;;;;;;5123918;27;20376;-53
2022/06/27 02:39:33;;;;;;;;;;;17.70;99.90;;;;;;5124903;27;19918;-53
2022/06/27 02:42:14;;;;;;;;;;;17.80;99.90;;;;;;5104553;27;19912;-54
2022/06/27 02:44:55;;;;;;;;;;;17.80;99.90;;;;;;5125408;27;20280;-53
2022/06/27 02:47:35;;;;;;;;;;;17.80;99.90;;;;;;5107588;27;19916;-53
2022/06/27 02:50:18;;;;;;;;;;;17.80;99.90;;;;;;5124419;27;20384;-54
2022/06/27 02:53:01;;;;;;;;;;;17.80;99.90;;;;;;5145309;27;19911;-53
2022/06/27 02:55:46;;;;;;;;;;;17.70;99.90;;;;;;5124142;27;19912;-53
2022/06/27 02:58:33;;;;;;;;;;;17.70;99.90;;;;;;5124304;27;20395;-54
2022/06/27 03:01:16;;;;;;;;;;;17.70;99.90;;;;;;5124385;27;19911;-53
2022/06/27 03:03:58;;;;;;;;;;;17.80;99.90;;;;;;5103650;27;19916;-53
2022/06/27 03:06:40;;;;;;;;;;;17.80;99.90;;;;;;5115081;27;19927;-53
2022/06/27 03:09:20;;;;;;;;;;;17.80;99.90;;;;;;5124399;27;19911;-53
2022/06/27 03:12:00;;;;;;;;;;;17.80;99.90;;;;;;5125144;27;19916;-53
2022/06/27 03:14:40;;;;;;;;;;;17.80;99.90;;;;;;5123290;27;19912;-54
2022/06/27 03:17:20;;;;;;;;;;;17.90;99.90;;;;;;5115937;27;19957;-53
2022/06/27 03:20:20;;;;;;;;;;;17.90;99.90;;;;;;5101566;27;19926;-54
2022/06/27 03:23:19;;;;;;;;;;;17.90;99.90;;;;;;5123558;27;19927;-54
2022/06/27 03:26:09;;;;;;;;;;;17.90;99.90;;;;;;5123510;27;20141;-54
2022/06/27 03:28:52;;;;;;;;;;;17.80;99.90;;;;;;5101994;27;20052;-54
2022/06/27 03:31:33;;;;;;;;;;;17.70;99.90;;;;;;5123580;27;19912;-54
2022/06/27 03:34:16;;;;;;;;;;;17.60;99.90;;;;;;5104175;27;19926;-54
2022/06/27 03:37:03;;;;;;;;;;;17.80;99.90;;;;;;5112305;27;20320;-53
2022/06/27 03:39:42;;;;;;;;;;;18.20;99.90;;;;;;5123326;27;19912;-53
2022/06/27 03:42:22;;;;;;;;;;;18.40;99.90;;;;;;5119896;27;19919;-53
2022/06/27 03:45:02;;;;;;;;;;;18.50;99.90;;;;;;5123199;27;19916;-54
2022/06/27 03:47:48;;;;;;;;;;;18.60;99.90;;;;;;5122367;27;20430;-53
2022/06/27 03:50:46;;;;;;;;;;;18.80;99.90;;;;;;5124211;27;19972;-54
2022/06/27 03:53:25;;;;;;;;;;;18.90;99.90;;;;;;5124630;27;20192;-53
2022/06/27 03:56:06;;;;;;;;;;;18.90;99.90;;;;;;5118600;27;19916;-53
2022/06/27 03:58:47;;;;;;;;;;;18.90;99.90;;;;;;5123686;27;19922;-53
2022/06/27 04:01:26;;;;;;;;;;;19.00;99.90;;;;;;5124201;27;19911;-53
2022/06/27 04:04:06;;;;;;;;;;;19.00;99.90;;;;;;5124875;27;19916;-54
2022/06/27 04:06:48;;;;;;;;;;;19.10;99.90;;;;;;5112795;27;20329;-53
2022/06/27 04:09:28;;;;;;;;;;;19.10;99.90;;;;;;5124257;27;19912;-53
2022/06/27 04:12:08;;;;;;;;;;;19.10;99.90;;;;;;5124512;27;19912;-54
2022/06/27 04:15:09;;;;;;;;;;;19.00;99.90;;;;;;5124650;27;19918;-54
2022/06/27 04:18:09;;;;;;;;;;;19.00;99.90;;;;;;5124132;27;19915;-54
2022/06/27 04:21:08;;;;;;;;;;;19.10;99.90;;;;;;5124332;27;20260;-53
2022/06/27 04:23:59;;;;;;;;;;;19.20;99.90;;;;;;5124477;27;19920;-54
2022/06/27 04:26:57;;;;;;;;;;;19.40;99.90;;;;;;5112755;27;19912;-53
2022/06/27 04:29:38;;;;;;;;;;;19.50;99.90;;;;;;5123010;27;19946;-54
2022/06/27 04:32:18;;;;;;;;;;;19.60;99.90;;;;;;5102356;27;19926;-53
2022/06/27 04:34:57;;;;;;;;;;;19.70;99.90;;;;;;5122544;27;19916;-54
2022/06/27 04:37:41;;;;;;;;;;;19.80;99.90;;;;;;5118910;27;19911;-53
2022/06/27 04:40:39;;;;;;;;;;;19.90;99.90;;;;;;5101625;27;19934;-53
2022/06/27 04:43:19;;;;;;;;;;;19.80;99.90;;;;;;5083052;28;20100;-53
2022/06/27 04:46:01;;;;;;;;;;;19.80;99.90;;;;;;5120825;27;19912;-52
2022/06/27 04:49:00;;;;;;;;;;;19.80;99.90;;;;;;5130199;27;19915;-53
2022/06/27 04:51:43;;;;;;;;;;;19.70;99.90;;;;;;5123977;27;19912;-53
2022/06/27 04:54:34;;;;;;;;;;;19.70;99.90;;;;;;5124087;27;19965;-53
2022/06/27 04:57:14;;;;;;;;;;;19.80;99.90;;;;;;5110008;27;19916;-54
2022/06/27 04:59:54;;;;;;;;;;;19.70;99.90;;;;;;5124170;27;19923;-53
2022/06/27 05:02:58;;;;;;;;;;;19.80;99.90;;;;;;5104022;27;19946;-53
2022/06/27 05:05:39;;;;;;;;;;;19.90;99.90;;;;;;5123977;27;20273;-53
2022/06/27 05:08:21;;;;;;;;;;;20.00;99.90;;;;;;5124128;27;19915;-53
2022/06/27 05:11:02;;;;;;;;;;;20.10;99.90;;;;;;5104028;27;19916;-54
2022/06/27 05:13:42;;;;;;;;;;;20.10;99.90;;;;;;5124247;27;19912;-54
2022/06/27 05:16:33;;;;;;;;;;;20.10;99.90;;;;;;5116716;27;20373;-54
2022/06/27 05:19:15;;;;;;;;;;;20.20;99.90;;;;;;5124308;27;19912;-53
2022/06/27 05:21:57;;;;;;;;;;;20.30;99.90;;;;;;5123872;27;19915;-53
2022/06/27 05:24:41;;;;;;;;;;;20.50;99.90;;;;;;5083486;28;19923;-54
2022/06/27 05:27:23;;;;;;;;;;;20.60;99.90;;;;;;5102936;27;20270;-52
2022/06/27 05:30:04;;;;;;;;;;;20.70;99.90;;;;;;5103508;27;19954;-53
2022/06/27 05:32:46;;;;;;;;;;;20.80;99.90;;;;;;5124515;27;19915;-53
2022/06/27 05:35:26;;;;;;;;;;;20.70;99.90;;;;;;5124228;27;19916;-53
2022/06/27 05:38:06;;;;;;;;;;;20.80;99.90;;;;;;5120634;27;19923;-54
2022/06/27 05:40:46;;;;;;;;;;;20.80;99.90;;;;;;5123470;27;20392;-54
2022/06/27 05:43:27;;;;;;;;;;;20.80;99.90;;;;;;5102661;27;19912;-53
2022/06/27 05:46:07;;;;;;;;;;;20.80;99.90;;;;;;5101910;27;19912;-53
2022/06/27 05:49:06;;;;;;;;;;;20.80;99.90;;;;;;5123563;27;19912;-53
2022/06/27 05:51:57;;;;;;;;;;;21.00;99.90;;;;;;5122795;27;19919;-54
2022/06/27 05:54:38;;;;;;;;;;;21.50;99.90;;;;;;5102627;27;19912;-54
2022/06/27 05:57:20;;;;;;;;;;;22.10;99.90;;;;;;5109543;27;19915;-53
2022/06/27 06:00:02;;;;;;;;;;;22.80;99.90;;;;;;5119237;27;20319;-53
2022/06/27 06:02:43;;;;;;;;;;;23.30;99.90;;;;;;5102798;27;19915;-53
2022/06/27 06:05:26;;;;;;;;;;;23.80;99.90;;;;;;5092429;27;19935;-52
2022/06/27 06:08:06;;;;;;;;;;;24.20;99.90;;;;;;5116474;27;20047;-53
2022/06/27 06:10:47;;;;;;;;;;;24.40;99.90;;;;;;5103255;27;19912;-54
2022/06/27 06:13:28;;;;;;;;;;;24.70;99.90;;;;;;5103970;27;19916;-52
2022/06/27 06:16:10;;;;;;;;;;;24.90;99.90;;;;;;5099237;27;19927;-54
2022/06/27 06:18:52;;;;;;;;;;;25.20;99.90;;;;;;5124133;27;20331;-53
2022/06/27 06:21:36;;;;;;;;;;;25.40;99.90;;;;;;5104044;27;19912;-54
2022/06/27 06:24:17;;;;;;;;;;;25.40;99.90;;;;;;5104038;27;19916;-53
2022/06/27 06:27:00;;;;;;;;;;;25.40;99.90;;;;;;5112428;27;19916;-53
2022/06/27 06:29:42;;;;;;;;;;;25.40;99.90;;;;;;5086086;27;19970;-54
2022/06/27 06:32:23;;;;;;;;;;;25.20;99.90;;;;;;5083865;28;19913;-52
2022/06/27 06:35:04;;;;;;;;;;;25.30;99.90;;;;;;5124801;27;19922;-53
2022/06/27 06:37:45;;;;;;;;;;;25.50;99.90;;;;;;5106107;27;19912;-54
2022/06/27 06:40:24;;;;;;;;;;;25.60;99.90;;;;;;5104099;27;19969;-53
2022/06/27 06:43:04;;;;;;;;;;;25.90;99.90;;;;;;5123706;27;19941;-53
2022/06/27 06:45:45;;;;;;;;;;;26.10;99.90;;;;;;5103706;27;20418;-54
2022/06/27 06:48:53;;;;;;;;;;;26.40;99.90;;;;;;5123890;27;19915;-53
2022/06/27 06:51:34;;;;;;;;;;;26.60;99.90;;;;;;5083567;28;19912;-53
2022/06/27 06:54:17;;;;;;;;;;;26.90;99.90;;;;;;5124594;27;19916;-53
2022/06/27 06:56:58;;;;;;;;;;;26.90;99.90;;;;;;5102686;27;19912;-53
2022/06/27 06:59:38;;;;;;;;;;;26.90;99.90;;;;;;5103175;27;19930;-54
2022/06/27 07:02:18;;;;;;;;;;;26.80;99.90;;;;;;5104256;27;19926;-54
2022/06/27 07:04:58;;;;;;;;;;;27.10;99.90;;;;;;5124698;27;19918;-54
2022/06/27 07:07:39;;;;;;;;;;;27.20;99.90;;;;;;5106720;27;19920;-53
2022/06/27 07:10:20;;;;;;;;;;;27.30;99.90;;;;;;5104074;27;20260;-53
2022/06/27 07:13:02;;;;;;;;;;;27.40;99.90;;;;;;5144988;27;19911;-53
2022/06/27 07:15:45;;;;;;;;;;;27.60;99.90;;;;;;5123684;27;19911;-53
2022/06/27 07:18:25;;;;;;;;;;;27.60;99.90;;;;;;5103774;27;19916;-53
2022/06/27 07:21:06;;;;;;;;;;;27.70;99.90;;;;;;5158071;27;19911;-53
2022/06/27 07:23:47;;;;;;;;;;;27.80;99.90;;;;;;5083507;28;20321;-54
2022/06/27 07:26:31;;;;;;;;;;;27.70;99.90;;;;;;5103256;27;20348;-55
2022/06/27 07:29:11;;;;;;;;;;;27.80;99.90;;;;;;5124421;27;19915;-57
2022/06/27 07:31:52;;;;;;;;;;;27.80;99.90;;;;;;5124454;27;20270;-54
2022/06/27 07:34:32;;;;;;;;;;;27.80;99.90;;;;;;5124659;27;20311;-56
2022/06/27 07:37:12;;;;;;;;;;;27.70;99.90;;;;;;5135925;27;19918;-54
2022/06/27 07:39:52;;;;;;;;;;;27.60;99.90;;;;;;5124125;27;19915;-55
2022/06/27 07:42:32;;;;;;;;;;;27.70;99.90;;;;;;5104373;27;19922;-55
2022/06/27 07:45:14;;;;;;;;;;;27.90;99.90;;;;;;5124558;27;20659;-55
2022/06/27 07:47:55;;;;;;;;;;;28.00;99.90;;;;;;5103110;27;19950;-55
2022/06/27 07:50:39;;;;;;;;;;;28.00;99.90;;;;;;5120006;27;19919;-56
2022/06/27 07:53:20;;;;;;;;;;;28.00;98.80;;;;;;5100671;27;19916;-55
2022/06/27 07:56:01;;;;;;;;;;;27.90;96.60;;;;;;5136256;27;20310;-54
2022/06/27 07:58:42;;;;;;;;;;;27.90;94.20;;;;;;5104603;27;19912;-55
2022/06/27 08:01:23;;;;;;;;;;;28.00;92.90;;;;;;5122122;27;19915;-55
2022/06/27 08:04:04;;;;;;;;;;;28.00;92.30;;;;;;5102761;27;19943;-56
2022/06/27 08:06:46;;;;;;;;;;;28.10;93.60;;;;;;5119285;27;19918;-54
2022/06/27 08:09:26;;;;;;;;;;;28.10;94.00;;;;;;5108516;27;19911;-56
2022/06/27 08:12:08;;;;;;;;;;;28.20;94.30;;;;;;5097584;27;20026;-55
2022/06/27 08:14:51;;;;;;;;;;;28.20;92.60;;;;;;5119300;27;19920;-54
2022/06/27 08:17:32;;;;;;;;;;;28.20;92.80;;;;;;5101312;27;19912;-54
2022/06/27 08:20:13;;;;;;;;;;;28.30;91.80;;;;;;5119701;27;19919;-56
2022/06/27 08:22:53;;;;;;;;;;;28.20;92.50;;;;;;5097344;27;19912;-55
2022/06/27 08:25:34;;;;;;;;;;;28.20;92.20;;;;;;5119895;27;19911;-55
2022/06/27 08:28:15;;;;;;;;;;;28.20;92.30;;;;;;5086638;27;20348;-55
2022/06/27 08:30:56;;;;;;;;;;;28.20;92.30;;;;;;5122735;27;19916;-56
2022/06/27 08:33:37;;;;;;;;;;;28.30;91.90;;;;;;5123012;27;20327;-54
2022/06/27 08:36:17;;;;;;;;;;;28.50;93.70;;;;;;5110663;27;19951;-55
2022/06/27 08:38:57;;;;;;;;;;;28.70;92.00;;;;;;5101874;27;19981;-55
2022/06/27 08:41:37;;;;;;;;;;;28.80;90.30;;;;;;5123940;27;19912;-55
2022/06/27 08:44:16;;;;;;;;;;;28.90;89.20;;;;;;5124688;27;19916;-56
2022/06/27 08:46:59;;;;;;;;;;;28.90;84.40;;;;;;5092834;27;20329;-55
2022/06/27 08:49:41;;;;;;;;;;;28.80;84.80;;;;;;5140962;27;20273;-54
2022/06/27 08:52:23;;;;;;;;;;;28.80;83.60;;;;;;5119102;27;19922;-54
2022/06/27 08:55:08;;;;;;;;;;;28.90;89.50;;;;;;5107085;27;19920;-56
2022/06/27 08:57:48;;;;;;;;;;;29.10;85.30;;;;;;5102728;27;19954;-54
2022/06/27 09:00:28;;;;;;;;;;;29.20;90.10;;;;;;5083591;28;19913;-56
2022/06/27 09:03:08;;;;;;;;;;;29.10;84.70;;;;;;5125014;27;19912;-54
2022/06/27 09:05:57;;;;;;;;;;;29.20;81.80;;;;;;5102162;27;20430;-54
2022/06/27 09:08:53;;;;;;;;;;;29.20;81.50;;;;;;5066854;27;19912;-55
2022/06/27 09:11:35;;;;;;;;;;;29.20;81.60;;;;;;5119684;27;19912;-55
2022/06/27 09:14:28;;;;;;;;;;;29.40;76.80;;;;;;5103289;27;20752;-55
2022/06/27 09:17:12;;;;;;;;;;;29.60;73.20;;;;;;5143301;27;19915;-55
2022/06/27 09:19:53;;;;;;;;;;;29.50;71.30;;;;;;5123447;27;19916;-54
2022/06/27 09:22:33;;;;;;;;;;;29.50;71.20;;;;;;5097887;27;20409;-56
2022/06/27 09:25:14;;;;;;;;;;;29.60;71.80;;;;;;5123173;27;20384;-55
2022/06/27 09:27:55;;;;;;;;;;;29.60;72.50;;;;;;5101510;27;20374;-56
2022/06/27 09:30:36;;;;;;;;;;;29.80;68.20;;;;;;5120147;27;19926;-55
2022/06/27 09:33:16;;;;;;;;;;;29.90;65.70;;;;;;5102829;27;19920;-56
2022/06/27 09:35:56;;;;;;;;;;;29.90;65.90;;;;;;5122183;27;19912;-55
2022/06/27 09:38:39;;;;;;;;;;;30.00;65.60;;;;;;5122582;27;20452;-54
2022/06/27 09:41:20;;;;;;;;;;;30.10;65.30;;;;;;5124185;27;19918;-54
2022/06/27 09:44:03;;;;;;;;;;;30.10;64.60;;;;;;5104184;27;19915;-56
2022/06/27 09:46:45;;;;;;;;;;;30.00;66.30;;;;;;5114746;27;19912;-55
2022/06/27 09:49:26;;;;;;;;;;;30.00;64.10;;;;;;5124104;27;20324;-55
2022/06/27 09:52:08;;;;;;;;;;;30.00;59.40;;;;;;5100238;27;19915;-55
2022/06/27 09:54:50;;;;;;;;;;;30.10;60.90;;;;;;5122908;27;19919;-55
2022/06/27 09:57:31;;;;;;;;;;;30.30;60.30;;;;;;5102563;27;19918;-55
2022/06/27 10:00:11;;;;;;;;;;;30.40;59.30;;;;;;5103583;27;19916;-55
2022/06/27 10:02:55;;;;;;;;;;;30.60;61.60;;;;;;5098502;27;19919;-55
2022/06/27 10:05:37;;;;;;;;;;;30.80;58.30;;;;;;5122556;27;20262;-55
2022/06/27 10:08:18;;;;;;;;;;;30.80;59.00;;;;;;5124039;27;19920;-54
2022/06/27 10:11:07;;;;;;;;;;;30.70;58.10;;;;;;5124127;27;20365;-55
2022/06/27 10:14:08;;;;;;;;;;;30.90;57.60;;;;;;5124945;27;19912;-53
2022/06/27 10:16:53;;;;;;;;;;;30.70;58.70;;;;;;5152856;27;19916;-55
2022/06/27 10:19:34;;;;;;;;;;;30.80;57.90;;;;;;5104219;27;20320;-53
2022/06/27 10:22:25;;;;;;;;;;;30.90;58.00;;;;;;5124124;27;20369;-53
2022/06/27 10:25:18;;;;;;;;;;;31.00;56.50;;;;;;5103716;27;20414;-55
2022/06/27 10:28:13;;;;;;;;;;;31.00;56.50;;;;;;5081925;28;19912;-55
2022/06/27 10:30:54;;;;;;;;;;;31.10;55.80;;;;;;5079675;28;19916;-54
2022/06/27 10:33:41;;;;;;;;;;;31.30;55.40;;;;;;5121162;27;19916;-55
2022/06/27 10:36:22;;;;;;;;;;;31.40;56.40;;;;;;5104293;27;19912;-56
2022/06/27 10:39:18;;;;;;;;;;;31.50;53.00;;;;;;5144149;27;19919;-55
2022/06/27 10:41:58;;;;;;;;;;;31.50;52.60;;;;;;5104006;27;19916;-54
2022/06/27 10:44:38;;;;;;;;;;;31.60;52.80;;;;;;5093089;27;19957;-55
2022/06/27 10:47:31;;;;;;;;;;;31.70;51.60;;;;;;5072455;27;20119;-54
2022/06/27 10:50:12;;;;;;;;;;;31.80;50.40;;;;;;5097545;27;19916;-55
2022/06/27 10:53:11;;;;;;;;;;;31.70;50.20;;;;;;5123415;27;19915;-54
2022/06/27 10:55:53;;;;;;;;;;;31.60;50.50;;;;;;5081915;28;20301;-55
2022/06/27 10:58:34;;;;;;;;;;;31.50;51.60;;;;;;5103554;27;19957;-55
2022/06/27 11:01:14;;;;;;;;;;;31.60;48.70;;;;;;5103654;27;19949;-55
2022/06/27 11:03:55;;;;;;;;;;;31.50;48.70;;;;;;5103942;27;19912;-55
2022/06/27 11:06:36;;;;;;;;;;;31.60;47.90;;;;;;5116310;27;19932;-55
2022/06/27 11:09:16;;;;;;;;;;;31.60;50.70;;;;;;5103680;27;20398;-55
2022/06/27 11:11:57;;;;;;;;;;;31.70;49.70;;;;;;5123868;27;19911;-55
2022/06/27 11:14:45;;;;;;;;;;;31.90;48.30;;;;;;5124055;27;19911;-56
2022/06/27 11:17:33;;;;;;;;;;;31.90;47.30;;;;;;5109045;27;19920;-54
2022/06/27 11:20:15;;;;;;;;;;;31.80;48.60;;;;;;5124030;27;19912;-54
2022/06/27 11:22:58;;;;;;;;;;;31.90;48.70;;;;;;5104201;27;19930;-55
2022/06/27 11:25:41;;;;;;;;;;;32.00;46.30;;;;;;5124218;27;19925;-54
2022/06/27 11:34:20;;;;;;;;;;;32.40;48.40;;;;;;5124853;27;19912;-56
2022/06/27 11:37:01;;;;;;;;;;;32.60;48.00;;;;;;5120314;27;20357;-54
2022/06/27 11:39:42;;;;;;;;;;;32.60;45.40;;;;;;5123827;27;19912;-55
2022/06/27 11:42:28;;;;;;;;;;;32.60;44.10;;;;;;5124800;27;19912;-54
2022/06/27 11:45:09;;;;;;;;;;;32.70;44.80;;;;;;5103464;27;19912;-55
2022/06/27 11:47:49;;;;;;;;;;;32.70;43.70;;;;;;5102772;27;20406;-55
2022/06/27 11:50:33;;;;;;;;;;;32.80;44.10;;;;;;5124187;27;19918;-56
2022/06/27 11:53:13;;;;;;;;;;;32.70;43.60;;;;;;5104086;27;19949;-55
2022/06/27 11:55:53;;;;;;;;;;;32.70;44.40;;;;;;5123661;27;19916;-55
2022/06/27 11:58:46;;;;;;;;;;;32.90;43.50;;;;;;5124675;27;19916;-56
2022/06/27 12:01:28;;;;;;;;;;;33.10;42.80;;;;;;5103466;27;19934;-57
2022/06/27 12:04:18;;;;;;;;;;;33.20;43.70;;;;;;5105029;27;20157;-55
2022/06/27 12:06:59;;;;;;;;;;;33.30;45.00;;;;;;5099836;27;19912;-55
2022/06/27 12:09:48;;;;;;;;;;;33.40;42.30;;;;;;5124002;27;20332;-56
2022/06/27 12:12:30;;;;;;;;;;;33.30;43.00;;;;;;5124289;27;19939;-55
2022/06/27 12:15:19;;;;;;;;;;;33.30;43.40;;;;;;5083186;28;19916;-54
2022/06/27 12:18:00;;;;;;;;;;;33.30;42.80;;;;;;5083546;27;19912;-56
2022/06/27 12:20:41;;;;;;;;;;;33.40;44.40;;;;;;5124025;27;19915;-54
2022/06/27 12:23:21;;;;;;;;;;;33.30;43.70;;;;;;5124110;27;20389;-54
2022/06/27 12:26:01;;;;;;;;;;;32.80;44.00;;;;;;5102579;27;19920;-55
2022/06/27 12:28:42;;;;;;;;;;;32.40;45.30;;;;;;5102923;27;19916;-56
2022/06/27 12:31:22;;;;;;;;;;;32.40;49.10;;;;;;5103144;27;19931;-55
2022/06/27 12:34:03;;;;;;;;;;;32.20;50.40;;;;;;5138935;27;19915;-54
2022/06/27 12:36:44;;;;;;;;;;;31.80;52.40;;;;;;5114703;27;19912;-55
2022/06/27 12:39:23;;;;;;;;;;;31.60;53.90;;;;;;5124488;27;20161;-54
2022/06/27 12:42:03;;;;;;;;;;;31.60;54.60;;;;;;5124640;27;20300;-55
2022/06/27 12:44:43;;;;;;;;;;;31.90;54.30;;;;;;5102953;27;19912;-54
2022/06/27 12:47:23;;;;;;;;;;;32.00;55.70;;;;;;5103084;27;19915;-55
2022/06/27 12:50:03;;;;;;;;;;;32.10;54.40;;;;;;5103650;27;19962;-54
2022/06/27 12:52:42;;;;;;;;;;;31.80;55.50;;;;;;5083407;28;20340;-55
2022/06/27 12:55:22;;;;;;;;;;;31.70;56.10;;;;;;5103839;27;19926;-54
2022/06/27 12:58:02;;;;;;;;;;;31.80;56.00;;;;;;5062975;28;19913;-55
2022/06/27 13:00:42;;;;;;;;;;;32.00;56.60;;;;;;5124239;27;19926;-55
2022/06/27 13:03:22;;;;;;;;;;;32.00;56.40;;;;;;5104234;27;19928;-56
2022/06/27 13:06:01;;;;;;;;;;;31.90;55.00;;;;;;5121177;27;19915;-55
2022/06/27 13:08:42;;;;;;;;;;;31.90;55.30;;;;;;5124225;27;20327;-56
2022/06/27 13:11:21;;;;;;;;;;;32.00;55.70;;;;;;5124807;27;20521;-54
2022/06/27 13:14:01;;;;;;;;;;;32.00;54.30;;;;;;5124361;27;20380;-55
2022/06/27 13:16:41;;;;;;;;;;;31.90;53.90;;;;;;5115292;27;19916;-55
2022/06/27 13:19:21;;;;;;;;;;;31.90;53.30;;;;;;5083564;28;19913;-54
2022/06/27 13:22:02;;;;;;;;;;;31.70;53.50;;;;;;5115826;27;19911;-55
2022/06/27 13:24:42;;;;;;;;;;;31.70;53.00;;;;;;5083378;28;19916;-54
2022/06/27 13:27:23;;;;;;;;;;;31.90;53.00;;;;;;5123559;27;19911;-54
2022/06/27 13:30:04;;;;;;;;;;;32.00;51.50;;;;;;5123967;27;20372;-55
2022/06/27 13:32:45;;;;;;;;;;;32.10;52.30;;;;;;5104354;27;20029;-54
2022/06/27 13:35:25;;;;;;;;;;;32.00;52.40;;;;;;5124198;27;19916;-54
2022/06/27 13:38:06;;;;;;;;;;;32.10;52.00;;;;;;5138798;27;19912;-55
2022/06/27 13:40:46;;;;;;;;;;;32.40;52.10;;;;;;5118978;27;19911;-56
2022/06/27 13:43:26;;;;;;;;;;;32.50;50.10;;;;;;5096747;27;19916;-53
2022/06/27 13:46:05;;;;;;;;;;;32.40;49.90;;;;;;5106590;27;19926;-55
2022/06/27 13:48:45;;;;;;;;;;;32.40;50.50;;;;;;5154641;27;20395;-53
2022/06/27 13:51:25;;;;;;;;;;;32.30;51.20;;;;;;5124273;27;19913;-53
2022/06/27 13:54:05;;;;;;;;;;;32.20;49.10;;;;;;5095615;27;19926;-53
2022/06/27 13:56:45;;;;;;;;;;;32.00;48.70;;;;;;5117584;27;19922;-53
2022/06/27 13:59:25;;;;;;;;;;;31.90;48.70;;;;;;5097912;27;19915;-53
2022/06/27 14:02:04;;;;;;;;;;;31.80;48.60;;;;;;5102354;27;20403;-53
2022/06/27 14:04:44;;;;;;;;;;;31.80;48.70;;;;;;5123789;27;19915;-53
2022/06/27 14:07:44;;;;;;;;;;;31.80;49.50;;;;;;5109459;27;19916;-53
2022/06/27 14:10:27;;;;;;;;;;;32.00;48.50;;;;;;5124082;27;19915;-53
2022/06/27 14:13:13;;;;;;;;;;;32.00;48.90;;;;;;5124528;27;20304;-53
2022/06/27 14:15:52;;;;;;;;;;;32.20;48.60;;;;;;5123714;27;19916;-53
2022/06/27 14:18:32;;;;;;;;;;;32.40;48.50;;;;;;5123962;27;20288;-53
2022/06/27 14:21:12;;;;;;;;;;;32.40;47.80;;;;;;5123776;27;20503;-53
2022/06/27 14:24:05;;;;;;;;;;;32.50;47.00;;;;;;5097677;27;19926;-53
2022/06/27 14:26:46;;;;;;;;;;;32.40;47.40;;;;;;5092783;27;19977;-53
2022/06/27 14:29:26;;;;;;;;;;;32.50;48.20;;;;;;5112625;27;19916;-53
2022/06/27 14:32:06;;;;;;;;;;;32.70;46.40;;;;;;5102702;27;19916;-53
2022/06/27 14:34:47;;;;;;;;;;;32.70;46.30;;;;;;5120722;27;19934;-53
2022/06/27 14:37:27;;;;;;;;;;;32.80;46.00;;;;;;5101217;27;20340;-53
2022/06/27 14:40:08;;;;;;;;;;;32.80;46.30;;;;;;5110277;27;20401;-53
2022/06/27 14:42:48;;;;;;;;;;;32.90;46.60;;;;;;5081863;28;19921;-53
2022/06/27 14:45:28;;;;;;;;;;;32.90;45.50;;;;;;5123943;27;19915;-53
2022/06/27 14:48:08;;;;;;;;;;;32.90;45.10;;;;;;5123589;27;19934;-54
2022/06/27 14:50:48;;;;;;;;;;;32.90;46.00;;;;;;5123974;27;19911;-53
2022/06/27 14:53:29;;;;;;;;;;;33.10;45.40;;;;;;5124111;27;19911;-53
2022/06/27 14:56:09;;;;;;;;;;;33.20;44.60;;;;;;5102772;27;20331;-53
2022/06/27 14:58:49;;;;;;;;;;;33.30;44.00;;;;;;5123712;27;20365;-52
2022/06/27 15:01:29;;;;;;;;;;;33.20;43.20;;;;;;5083513;28;19913;-54
2022/06/27 15:04:10;;;;;;;;;;;33.00;43.40;;;;;;5123987;27;19922;-52
2022/06/27 15:06:50;;;;;;;;;;;33.00;43.70;;;;;;5079793;28;20260;-53
2022/06/27 15:09:30;;;;;;;;;;;33.10;44.20;;;;;;5123644;27;20414;-53
2022/06/27 15:12:10;;;;;;;;;;;33.10;42.80;;;;;;5119652;27;19912;-53
2022/06/27 15:14:51;;;;;;;;;;;32.90;43.00;;;;;;5118078;27;20340;-53
2022/06/27 15:17:31;;;;;;;;;;;32.60;44.40;;;;;;5118660;27;19916;-53
2022/06/27 15:20:12;;;;;;;;;;;32.70;43.80;;;;;;5117840;27;19911;-53
2022/06/27 15:22:52;;;;;;;;;;;32.50;43.70;;;;;;5123639;27;19957;-53
2022/06/27 15:25:32;;;;;;;;;;;32.70;44.90;;;;;;5100357;27;20419;-54
2022/06/27 15:28:12;;;;;;;;;;;33.70;42.50;;;;;;5079730;27;19930;-53
2022/06/27 15:31:03;;;;;;;;;;;35.10;42.00;;;;;;5123412;27;19920;-54
2022/06/27 15:33:44;;;;;;;;;;;35.90;39.10;;;;;;5103637;27;19926;-53
2022/06/27 15:36:24;;;;;;;;;;;36.50;39.00;;;;;;5093438;27;20554;-54
2022/06/27 15:39:05;;;;;;;;;;;36.90;37.80;;;;;;5139754;27;19912;-53
2022/06/27 15:41:46;;;;;;;;;;;37.40;35.80;;;;;;5117486;27;19912;-53
2022/06/27 15:44:26;;;;;;;;;;;37.80;36.00;;;;;;5096139;27;20323;-53
2022/06/27 15:47:06;;;;;;;;;;;38.00;34.70;;;;;;5087539;27;19926;-53
2022/06/27 15:49:47;;;;;;;;;;;37.50;34.50;;;;;;5102605;27;19926;-54